Airfield :
LOGIN :

Register | Disclaimer

   EN    FR    IT 

 










Legend :    VFR   Marginal VFR   IFR   Intensive IFR   Very Intensive IFR
Visi :
Ceiling :
>= 8 km
>= 3000ft
5 to 8 km
1000 to 3000 ft
1500m to 5 km
500 to 1000 ft
800 to 1500m
200 to 500 ft
< 800m
< 200 ft
Symbols :   Thunderstorms  Fog  Heavy snow  Heavy precipitations  Wind > 20 kt
SIGMETs :     Misc.  Thunderstorms  Icing  Turbulence  Mountain Waves  Volcanic Ashes







- Airport Elevation : 915 ft
- IATA code : LUG


LSZA - Lugano

CURRENT METAR :
  • 221750Z 22005KT 9999 FEW070 SCT140 27/17 Q1010 NOSIG

EXPIRED METARs :
  • 221720Z 20007KT 170V240 9999 FEW070 SCT160 28/17 Q1009 NOSIG
  • 221650Z 20007KT 160V220 9999 FEW080 29/17 Q1009 NOSIG
  • 221620Z 19007KT 140V210 9999 FEW080 29/17 Q1009 NOSIG
  • 221550Z 19008KT 160V220 9999 FEW080TCU SCT120 29/17 Q1009 NOSIG
  • 221520Z 19007KT 9999 FEW080TCU SCT120 30/18 Q1009 NOSIG

TAF AMD TAF LSZA
Valid from the 22 at 17:00 until the 23 at 00:00 UTC


221735Z 2217/2224 19007KT 9999 FEW070 SCT160
PROB40
TEMPO 2217/2221 SHRA SCT050TCU
ATIS : +41 22 417 40 88
No reported NOTAMs for that airfield.



MET'MAP, your aeronautical weather chart ! - Copyright ORBIFLY December 2007 - Disclaimer

ORBIFLY MET'MAP TEAM :

Programming & Development : Alexandra Zaïnal
Concept & Development : Baudouin d'Aumeries
Co-Development & Prog : Marc-Olivier Méhu
Technical & hardware support : Manuel Goepfert

Contact : metmap@orbifly.com




SOURCES & CREDITS :

   NOAA